sensor_id;sensor_type;location;lat;lon;timestamp;P1;durP1;ratioP1;P2;durP2;ratioP2
22650;SDS011;11492;42.646;23.400;2023-02-28T00:01:20;40.13;;;20.92;;
22650;SDS011;11492;42.646;23.400;2023-02-28T00:03:46;42.38;;;20.70;;
22650;SDS011;11492;42.646;23.400;2023-02-28T00:06:11;35.25;;;20.58;;
22650;SDS011;11492;42.646;23.400;2023-02-28T00:08:37;40.05;;;20.63;;
22650;SDS011;11492;42.646;23.400;2023-02-28T00:11:05;45.72;;;21.17;;
22650;SDS011;11492;42.646;23.400;2023-02-28T00:13:33;40.47;;;21.60;;
22650;SDS011;11492;42.646;23.400;2023-02-28T00:16:04;41.00;;;23.20;;
22650;SDS011;11492;42.646;23.400;2023-02-28T00:18:34;43.28;;;23.83;;
22650;SDS011;11492;42.646;23.400;2023-02-28T00:21:00;41.15;;;22.63;;
22650;SDS011;11492;42.646;23.400;2023-02-28T00:23:26;49.05;;;23.55;;
22650;SDS011;11492;42.646;23.400;2023-02-28T00:25:52;44.72;;;24.98;;
22650;SDS011;11492;42.646;23.400;2023-02-28T00:28:18;42.38;;;23.60;;
22650;SDS011;11492;42.646;23.400;2023-02-28T00:30:44;45.00;;;24.13;;
22650;SDS011;11492;42.646;23.400;2023-02-28T00:33:10;41.78;;;23.88;;
22650;SDS011;11492;42.646;23.400;2023-02-28T00:35:35;42.42;;;23.35;;
22650;SDS011;11492;42.646;23.400;2023-02-28T00:38:01;38.88;;;22.77;;
22650;SDS011;11492;42.646;23.400;2023-02-28T00:40:27;45.47;;;24.88;;
22650;SDS011;11492;42.646;23.400;2023-02-28T00:42:52;45.47;;;25.23;;
22650;SDS011;11492;42.646;23.400;2023-02-28T00:45:18;42.03;;;24.27;;
22650;SDS011;11492;42.646;23.400;2023-02-28T00:47:44;43.67;;;25.05;;
22650;SDS011;11492;42.646;23.400;2023-02-28T00:50:11;47.13;;;23.92;;
22650;SDS011;11492;42.646;23.400;2023-02-28T00:52:37;45.90;;;23.75;;
22650;SDS011;11492;42.646;23.400;2023-02-28T00:55:03;44.58;;;23.35;;
22650;SDS011;11492;42.646;23.400;2023-02-28T00:57:29;42.05;;;24.13;;
22650;SDS011;11492;42.646;23.400;2023-02-28T00:59:54;46.88;;;24.25;;
22650;SDS011;11492;42.646;23.400;2023-02-28T01:02:21;49.58;;;24.38;;
22650;SDS011;11492;42.646;23.400;2023-02-28T01:04:47;48.97;;;25.10;;
22650;SDS011;11492;42.646;23.400;2023-02-28T01:07:12;44.00;;;23.48;;
22650;SDS011;11492;42.646;23.400;2023-02-28T01:09:39;45.78;;;25.30;;
22650;SDS011;11492;42.646;23.400;2023-02-28T01:12:06;41.15;;;23.65;;
22650;SDS011;11492;42.646;23.400;2023-02-28T01:14:32;46.95;;;25.67;;
22650;SDS011;11492;42.646;23.400;2023-02-28T01:16:59;48.45;;;25.08;;
22650;SDS011;11492;42.646;23.400;2023-02-28T01:19:24;50.03;;;25.48;;
22650;SDS011;11492;42.646;23.400;2023-02-28T01:21:50;43.80;;;26.48;;
22650;SDS011;11492;42.646;23.400;2023-02-28T01:24:15;48.83;;;26.67;;
22650;SDS011;11492;42.646;23.400;2023-02-28T01:26:41;48.00;;;25.70;;
22650;SDS011;11492;42.646;23.400;2023-02-28T01:29:06;47.60;;;26.00;;
22650;SDS011;11492;42.646;23.400;2023-02-28T01:31:32;45.60;;;26.58;;
22650;SDS011;11492;42.646;23.400;2023-02-28T01:33:57;46.83;;;26.65;;
22650;SDS011;11492;42.646;23.400;2023-02-28T01:36:23;50.38;;;27.45;;
22650;SDS011;11492;42.646;23.400;2023-02-28T01:38:49;46.88;;;27.27;;
22650;SDS011;11492;42.646;23.400;2023-02-28T01:41:20;52.85;;;28.50;;
22650;SDS011;11492;42.646;23.400;2023-02-28T01:46:13;52.60;;;26.05;;
22650;SDS011;11492;42.646;23.400;2023-02-28T01:51:29;53.22;;;25.88;;
22650;SDS011;11492;42.646;23.400;2023-02-28T01:53:56;44.95;;;26.45;;
22650;SDS011;11492;42.646;23.400;2023-02-28T01:56:28;46.97;;;24.95;;
22650;SDS011;11492;42.646;23.400;2023-02-28T01:58:55;40.42;;;23.75;;
22650;SDS011;11492;42.646;23.400;2023-02-28T02:01:22;49.70;;;24.90;;
22650;SDS011;11492;42.646;23.400;2023-02-28T02:03:52;41.33;;;24.55;;
22650;SDS011;11492;42.646;23.400;2023-02-28T02:06:21;44.83;;;25.00;;
22650;SDS011;11492;42.646;23.400;2023-02-28T02:08:48;42.85;;;24.00;;
22650;SDS011;11492;42.646;23.400;2023-02-28T02:11:13;46.72;;;25.90;;
22650;SDS011;11492;42.646;23.400;2023-02-28T02:27:25;54.50;;;28.67;;
22650;SDS011;11492;42.646;23.400;2023-02-28T02:33:24;55.65;;;29.35;;
22650;SDS011;11492;42.646;23.400;2023-02-28T02:35:46;53.00;;;28.10;;
22650;SDS011;11492;42.646;23.400;2023-02-28T02:43:19;59.72;;;29.70;;
22650;SDS011;11492;42.646;23.400;2023-02-28T02:45:54;57.33;;;29.50;;
22650;SDS011;11492;42.646;23.400;2023-02-28T02:48:25;58.28;;;29.48;;
22650;SDS011;11492;42.646;23.400;2023-02-28T02:50:55;60.25;;;29.25;;
22650;SDS011;11492;42.646;23.400;2023-02-28T02:54:07;45.22;;;27.05;;
22650;SDS011;11492;42.646;23.400;2023-02-28T02:56:17;52.78;;;28.02;;
22650;SDS011;11492;42.646;23.400;2023-02-28T02:58:46;51.40;;;29.27;;
22650;SDS011;11492;42.646;23.400;2023-02-28T03:01:15;56.75;;;29.52;;
22650;SDS011;11492;42.646;23.400;2023-02-28T03:04:02;55.92;;;28.92;;
22650;SDS011;11492;42.646;23.400;2023-02-28T03:06:30;52.38;;;28.92;;
22650;SDS011;11492;42.646;23.400;2023-02-28T03:08:56;49.83;;;29.00;;
22650;SDS011;11492;42.646;23.400;2023-02-28T03:11:22;56.47;;;28.73;;
22650;SDS011;11492;42.646;23.400;2023-02-28T03:16:35;48.70;;;28.85;;
22650;SDS011;11492;42.646;23.400;2023-02-28T03:19:13;56.38;;;28.65;;
22650;SDS011;11492;42.646;23.400;2023-02-28T03:21:58;52.30;;;28.50;;
22650;SDS011;11492;42.646;23.400;2023-02-28T03:27:38;52.47;;;28.33;;
22650;SDS011;11492;42.646;23.400;2023-02-28T03:32:38;55.90;;;29.90;;
22650;SDS011;11492;42.646;23.400;2023-02-28T03:35:11;53.30;;;28.27;;
22650;SDS011;11492;42.646;23.400;2023-02-28T03:37:46;51.20;;;27.48;;
22650;SDS011;11492;42.646;23.400;2023-02-28T03:40:21;52.08;;;28.00;;
22650;SDS011;11492;42.646;23.400;2023-02-28T03:42:51;58.47;;;29.23;;
22650;SDS011;11492;42.646;23.400;2023-02-28T03:45:24;54.90;;;28.17;;
22650;SDS011;11492;42.646;23.400;2023-02-28T03:48:01;50.65;;;28.52;;
22650;SDS011;11492;42.646;23.400;2023-02-28T03:50:36;50.60;;;26.58;;
22650;SDS011;11492;42.646;23.400;2023-02-28T03:56:07;59.63;;;29.85;;
22650;SDS011;11492;42.646;23.400;2023-02-28T03:58:49;51.42;;;26.63;;
22650;SDS011;11492;42.646;23.400;2023-02-28T04:01:24;55.42;;;29.15;;
22650;SDS011;11492;42.646;23.400;2023-02-28T04:03:54;57.35;;;29.00;;
22650;SDS011;11492;42.646;23.400;2023-02-28T04:06:20;63.50;;;30.63;;
22650;SDS011;11492;42.646;23.400;2023-02-28T04:08:48;60.22;;;30.00;;
22650;SDS011;11492;42.646;23.400;2023-02-28T04:13:39;64.97;;;31.70;;
22650;SDS011;11492;42.646;23.400;2023-02-28T04:16:08;60.20;;;30.25;;
22650;SDS011;11492;42.646;23.400;2023-02-28T04:18:37;64.43;;;32.58;;
22650;SDS011;11492;42.646;23.400;2023-02-28T04:21:03;63.58;;;31.65;;
22650;SDS011;11492;42.646;23.400;2023-02-28T04:23:29;66.60;;;32.15;;
22650;SDS011;11492;42.646;23.400;2023-02-28T04:25:55;69.50;;;31.58;;
22650;SDS011;11492;42.646;23.400;2023-02-28T04:28:20;69.05;;;33.22;;
22650;SDS011;11492;42.646;23.400;2023-02-28T04:30:46;68.43;;;32.30;;
22650;SDS011;11492;42.646;23.400;2023-02-28T04:33:11;64.78;;;31.67;;
22650;SDS011;11492;42.646;23.400;2023-02-28T04:35:37;74.95;;;34.40;;
22650;SDS011;11492;42.646;23.400;2023-02-28T04:38:02;79.28;;;35.67;;
22650;SDS011;11492;42.646;23.400;2023-02-28T04:40:27;76.13;;;37.35;;
22650;SDS011;11492;42.646;23.400;2023-02-28T04:42:53;82.80;;;38.15;;
22650;SDS011;11492;42.646;23.400;2023-02-28T04:45:18;87.38;;;39.95;;
22650;SDS011;11492;42.646;23.400;2023-02-28T04:47:44;105.25;;;42.40;;
22650;SDS011;11492;42.646;23.400;2023-02-28T04:50:09;107.68;;;46.45;;
22650;SDS011;11492;42.646;23.400;2023-02-28T04:52:35;112.75;;;46.47;;
22650;SDS011;11492;42.646;23.400;2023-02-28T04:55:00;129.05;;;46.75;;
22650;SDS011;11492;42.646;23.400;2023-02-28T04:57:26;173.23;;;51.45;;
22650;SDS011;11492;42.646;23.400;2023-02-28T04:59:52;138.50;;;49.03;;
22650;SDS011;11492;42.646;23.400;2023-02-28T05:02:18;178.00;;;49.80;;
22650;SDS011;11492;42.646;23.400;2023-02-28T05:04:43;179.02;;;51.78;;
22650;SDS011;11492;42.646;23.400;2023-02-28T05:07:08;136.27;;;50.20;;
22650;SDS011;11492;42.646;23.400;2023-02-28T05:09:34;112.68;;;45.80;;
22650;SDS011;11492;42.646;23.400;2023-02-28T05:12:00;114.20;;;44.13;;
22650;SDS011;11492;42.646;23.400;2023-02-28T05:14:25;102.72;;;42.38;;
22650;SDS011;11492;42.646;23.400;2023-02-28T05:16:51;86.80;;;40.53;;
22650;SDS011;11492;42.646;23.400;2023-02-28T05:19:16;112.60;;;43.15;;
22650;SDS011;11492;42.646;23.400;2023-02-28T05:21:52;76.22;;;36.25;;
22650;SDS011;11492;42.646;23.400;2023-02-28T05:24:19;84.80;;;39.63;;
22650;SDS011;11492;42.646;23.400;2023-02-28T05:26:48;93.68;;;38.45;;
22650;SDS011;11492;42.646;23.400;2023-02-28T05:29:16;81.50;;;38.40;;
22650;SDS011;11492;42.646;23.400;2023-02-28T05:31:41;70.47;;;35.47;;
22650;SDS011;11492;42.646;23.400;2023-02-28T05:34:06;77.18;;;37.25;;
22650;SDS011;11492;42.646;23.400;2023-02-28T05:36:32;80.82;;;37.80;;
22650;SDS011;11492;42.646;23.400;2023-02-28T05:38:58;78.57;;;36.83;;
22650;SDS011;11492;42.646;23.400;2023-02-28T05:41:23;82.22;;;38.20;;
22650;SDS011;11492;42.646;23.400;2023-02-28T05:43:49;71.75;;;35.20;;
22650;SDS011;11492;42.646;23.400;2023-02-28T05:46:15;67.10;;;34.50;;
22650;SDS011;11492;42.646;23.400;2023-02-28T05:48:41;69.15;;;35.20;;
22650;SDS011;11492;42.646;23.400;2023-02-28T05:51:07;71.57;;;35.13;;
22650;SDS011;11492;42.646;23.400;2023-02-28T05:53:34;68.65;;;35.05;;
22650;SDS011;11492;42.646;23.400;2023-02-28T05:56:00;69.78;;;34.83;;
22650;SDS011;11492;42.646;23.400;2023-02-28T05:58:25;65.72;;;34.88;;
22650;SDS011;11492;42.646;23.400;2023-02-28T06:00:55;67.63;;;32.70;;
22650;SDS011;11492;42.646;23.400;2023-02-28T06:03:23;54.72;;;30.75;;
22650;SDS011;11492;42.646;23.400;2023-02-28T06:05:49;57.42;;;30.73;;
22650;SDS011;11492;42.646;23.400;2023-02-28T06:08:15;58.60;;;30.42;;
22650;SDS011;11492;42.646;23.400;2023-02-28T06:10:41;57.70;;;32.13;;
22650;SDS011;11492;42.646;23.400;2023-02-28T06:13:06;56.35;;;31.40;;
22650;SDS011;11492;42.646;23.400;2023-02-28T06:15:32;58.38;;;31.00;;
22650;SDS011;11492;42.646;23.400;2023-02-28T06:17:58;55.22;;;31.42;;
22650;SDS011;11492;42.646;23.400;2023-02-28T06:20:24;60.63;;;31.80;;
22650;SDS011;11492;42.646;23.400;2023-02-28T06:22:53;58.13;;;30.85;;
22650;SDS011;11492;42.646;23.400;2023-02-28T06:25:20;54.63;;;29.20;;
22650;SDS011;11492;42.646;23.400;2023-02-28T06:27:46;56.83;;;31.10;;
22650;SDS011;11492;42.646;23.400;2023-02-28T06:30:13;54.17;;;29.70;;
22650;SDS011;11492;42.646;23.400;2023-02-28T06:32:39;55.38;;;29.63;;
22650;SDS011;11492;42.646;23.400;2023-02-28T06:35:04;53.85;;;28.70;;
22650;SDS011;11492;42.646;23.400;2023-02-28T06:37:30;48.08;;;27.45;;
22650;SDS011;11492;42.646;23.400;2023-02-28T06:39:56;50.40;;;28.45;;
22650;SDS011;11492;42.646;23.400;2023-02-28T06:42:23;63.40;;;28.25;;
22650;SDS011;11492;42.646;23.400;2023-02-28T06:44:54;53.33;;;27.63;;
22650;SDS011;11492;42.646;23.400;2023-02-28T06:47:23;48.50;;;27.10;;
22650;SDS011;11492;42.646;23.400;2023-02-28T06:49:48;59.35;;;27.83;;
22650;SDS011;11492;42.646;23.400;2023-02-28T06:52:14;55.28;;;27.50;;
22650;SDS011;11492;42.646;23.400;2023-02-28T06:54:40;49.60;;;26.58;;
22650;SDS011;11492;42.646;23.400;2023-02-28T06:57:06;54.90;;;26.98;;
22650;SDS011;11492;42.646;23.400;2023-02-28T06:59:32;49.03;;;25.92;;
22650;SDS011;11492;42.646;23.400;2023-02-28T07:01:57;51.10;;;28.48;;
22650;SDS011;11492;42.646;23.400;2023-02-28T07:04:23;51.78;;;27.55;;
22650;SDS011;11492;42.646;23.400;2023-02-28T07:06:49;49.63;;;27.73;;
22650;SDS011;11492;42.646;23.400;2023-02-28T07:09:14;51.53;;;28.58;;
22650;SDS011;11492;42.646;23.400;2023-02-28T07:11:40;53.38;;;28.20;;
22650;SDS011;11492;42.646;23.400;2023-02-28T07:14:06;49.33;;;25.00;;
22650;SDS011;11492;42.646;23.400;2023-02-28T07:16:32;45.33;;;24.05;;
22650;SDS011;11492;42.646;23.400;2023-02-28T07:18:57;41.38;;;23.67;;
22650;SDS011;11492;42.646;23.400;2023-02-28T07:21:23;41.03;;;23.92;;
22650;SDS011;11492;42.646;23.400;2023-02-28T07:23:49;45.85;;;23.70;;
22650;SDS011;11492;42.646;23.400;2023-02-28T07:26:15;45.25;;;22.58;;
22650;SDS011;11492;42.646;23.400;2023-02-28T07:28:42;41.35;;;23.42;;
22650;SDS011;11492;42.646;23.400;2023-02-28T07:31:09;46.10;;;22.10;;
22650;SDS011;11492;42.646;23.400;2023-02-28T07:33:36;46.47;;;23.75;;
22650;SDS011;11492;42.646;23.400;2023-02-28T07:36:03;46.83;;;23.27;;
22650;SDS011;11492;42.646;23.400;2023-02-28T07:38:33;44.67;;;23.08;;
22650;SDS011;11492;42.646;23.400;2023-02-28T07:41:00;51.30;;;23.42;;
22650;SDS011;11492;42.646;23.400;2023-02-28T07:43:26;59.55;;;23.52;;
22650;SDS011;11492;42.646;23.400;2023-02-28T07:45:51;47.53;;;22.70;;
22650;SDS011;11492;42.646;23.400;2023-02-28T07:48:16;51.22;;;23.98;;
22650;SDS011;11492;42.646;23.400;2023-02-28T07:50:42;51.28;;;22.75;;
22650;SDS011;11492;42.646;23.400;2023-02-28T07:53:07;51.22;;;23.30;;
22650;SDS011;11492;42.646;23.400;2023-02-28T07:55:33;48.75;;;24.63;;
22650;SDS011;11492;42.646;23.400;2023-02-28T07:57:58;54.72;;;24.92;;
22650;SDS011;11492;42.646;23.400;2023-02-28T08:00:24;51.17;;;23.90;;
22650;SDS011;11492;42.646;23.400;2023-02-28T08:02:50;47.67;;;24.67;;
22650;SDS011;11492;42.646;23.400;2023-02-28T08:05:16;55.90;;;24.92;;
22650;SDS011;11492;42.646;23.400;2023-02-28T08:07:42;48.00;;;24.30;;
22650;SDS011;11492;42.646;23.400;2023-02-28T08:10:07;49.20;;;24.95;;
22650;SDS011;11492;42.646;23.400;2023-02-28T08:12:34;54.38;;;24.92;;
22650;SDS011;11492;42.646;23.400;2023-02-28T08:15:00;57.30;;;23.90;;
22650;SDS011;11492;42.646;23.400;2023-02-28T08:17:25;44.95;;;23.63;;
22650;SDS011;11492;42.646;23.400;2023-02-28T08:19:51;48.50;;;24.13;;
22650;SDS011;11492;42.646;23.400;2023-02-28T08:22:16;50.67;;;21.90;;
22650;SDS011;11492;42.646;23.400;2023-02-28T08:24:42;63.80;;;23.73;;
22650;SDS011;11492;42.646;23.400;2023-02-28T08:27:08;53.25;;;22.25;;
22650;SDS011;11492;42.646;23.400;2023-02-28T08:29:33;55.83;;;23.77;;
22650;SDS011;11492;42.646;23.400;2023-02-28T08:32:01;47.05;;;21.30;;
22650;SDS011;11492;42.646;23.400;2023-02-28T08:34:26;43.90;;;21.13;;
22650;SDS011;11492;42.646;23.400;2023-02-28T08:36:52;62.38;;;20.88;;
22650;SDS011;11492;42.646;23.400;2023-02-28T08:39:18;43.70;;;21.48;;
22650;SDS011;11492;42.646;23.400;2023-02-28T08:41:45;41.55;;;19.52;;
22650;SDS011;11492;42.646;23.400;2023-02-28T08:44:10;50.95;;;19.75;;
22650;SDS011;11492;42.646;23.400;2023-02-28T08:46:35;41.33;;;20.02;;
22650;SDS011;11492;42.646;23.400;2023-02-28T08:49:01;46.95;;;21.58;;
22650;SDS011;11492;42.646;23.400;2023-02-28T08:51:27;45.45;;;20.20;;
22650;SDS011;11492;42.646;23.400;2023-02-28T08:53:54;44.95;;;20.45;;
22650;SDS011;11492;42.646;23.400;2023-02-28T08:56:23;41.00;;;19.92;;
22650;SDS011;11492;42.646;23.400;2023-02-28T08:58:49;45.42;;;18.63;;
22650;SDS011;11492;42.646;23.400;2023-02-28T09:01:16;39.85;;;18.30;;
22650;SDS011;11492;42.646;23.400;2023-02-28T09:03:43;46.72;;;19.98;;
22650;SDS011;11492;42.646;23.400;2023-02-28T09:06:11;37.42;;;19.48;;
22650;SDS011;11492;42.646;23.400;2023-02-28T09:08:37;41.72;;;20.42;;
22650;SDS011;11492;42.646;23.400;2023-02-28T09:11:03;41.13;;;20.30;;
22650;SDS011;11492;42.646;23.400;2023-02-28T09:13:29;46.25;;;20.50;;
22650;SDS011;11492;42.646;23.400;2023-02-28T09:15:57;43.35;;;19.67;;
22650;SDS011;11492;42.646;23.400;2023-02-28T09:18:23;46.88;;;19.58;;
22650;SDS011;11492;42.646;23.400;2023-02-28T09:20:49;47.95;;;20.27;;
22650;SDS011;11492;42.646;23.400;2023-02-28T09:23:15;43.30;;;20.50;;
22650;SDS011;11492;42.646;23.400;2023-02-28T09:25:45;45.60;;;21.52;;
22650;SDS011;11492;42.646;23.400;2023-02-28T09:28:20;51.88;;;21.95;;
22650;SDS011;11492;42.646;23.400;2023-02-28T09:30:47;43.53;;;22.33;;
22650;SDS011;11492;42.646;23.400;2023-02-28T09:33:17;48.38;;;20.42;;
22650;SDS011;11492;42.646;23.400;2023-02-28T09:35:46;41.65;;;18.98;;
22650;SDS011;11492;42.646;23.400;2023-02-28T09:38:12;40.70;;;18.65;;
22650;SDS011;11492;42.646;23.400;2023-02-28T09:40:59;39.97;;;17.95;;
22650;SDS011;11492;42.646;23.400;2023-02-28T09:43:26;35.92;;;17.88;;
22650;SDS011;11492;42.646;23.400;2023-02-28T09:48:52;47.38;;;17.80;;
22650;SDS011;11492;42.646;23.400;2023-02-28T09:53:52;37.60;;;18.00;;
22650;SDS011;11492;42.646;23.400;2023-02-28T09:56:20;47.88;;;18.35;;
22650;SDS011;11492;42.646;23.400;2023-02-28T09:59:00;43.17;;;16.15;;
22650;SDS011;11492;42.646;23.400;2023-02-28T10:04:16;34.28;;;15.80;;
22650;SDS011;11492;42.646;23.400;2023-02-28T10:06:57;33.03;;;16.73;;
22650;SDS011;11492;42.646;23.400;2023-02-28T10:11:56;37.00;;;16.58;;
22650;SDS011;11492;42.646;23.400;2023-02-28T10:14:26;39.00;;;16.20;;
22650;SDS011;11492;42.646;23.400;2023-02-28T10:16:55;34.97;;;16.65;;
22650;SDS011;11492;42.646;23.400;2023-02-28T10:22:03;31.60;;;14.70;;
22650;SDS011;11492;42.646;23.400;2023-02-28T10:24:41;41.85;;;16.77;;
22650;SDS011;11492;42.646;23.400;2023-02-28T10:27:22;34.67;;;14.35;;
22650;SDS011;11492;42.646;23.400;2023-02-28T10:29:50;40.95;;;15.75;;
22650;SDS011;11492;42.646;23.400;2023-02-28T10:32:18;32.75;;;14.55;;
22650;SDS011;11492;42.646;23.400;2023-02-28T10:34:50;32.35;;;14.45;;
22650;SDS011;11492;42.646;23.400;2023-02-28T10:37:38;36.33;;;13.93;;
22650;SDS011;11492;42.646;23.400;2023-02-28T10:40:50;34.67;;;13.77;;
22650;SDS011;11492;42.646;23.400;2023-02-28T10:45:31;33.15;;;13.70;;
22650;SDS011;11492;42.646;23.400;2023-02-28T10:48:02;31.65;;;13.13;;
22650;SDS011;11492;42.646;23.400;2023-02-28T10:56:14;35.00;;;13.25;;
22650;SDS011;11492;42.646;23.400;2023-02-28T11:01:13;34.63;;;13.45;;
22650;SDS011;11492;42.646;23.400;2023-02-28T11:03:49;34.67;;;13.20;;
22650;SDS011;11492;42.646;23.400;2023-02-28T11:06:17;33.67;;;13.68;;
22650;SDS011;11492;42.646;23.400;2023-02-28T11:11:14;39.80;;;14.68;;
22650;SDS011;11492;42.646;23.400;2023-02-28T11:13:42;33.88;;;14.07;;
22650;SDS011;11492;42.646;23.400;2023-02-28T11:16:11;28.25;;;13.73;;
22650;SDS011;11492;42.646;23.400;2023-02-28T11:18:43;37.78;;;15.48;;
22650;SDS011;11492;42.646;23.400;2023-02-28T11:21:21;25.90;;;14.10;;
22650;SDS011;11492;42.646;23.400;2023-02-28T11:23:52;29.92;;;14.23;;
22650;SDS011;11492;42.646;23.400;2023-02-28T11:26:37;27.60;;;14.63;;
22650;SDS011;11492;42.646;23.400;2023-02-28T11:29:10;32.75;;;14.35;;
22650;SDS011;11492;42.646;23.400;2023-02-28T11:31:41;30.57;;;14.20;;
22650;SDS011;11492;42.646;23.400;2023-02-28T11:37:03;32.70;;;15.50;;
22650;SDS011;11492;42.646;23.400;2023-02-28T11:39:31;42.25;;;16.27;;
22650;SDS011;11492;42.646;23.400;2023-02-28T11:42:02;34.30;;;15.65;;
22650;SDS011;11492;42.646;23.400;2023-02-28T11:44:53;35.42;;;16.88;;
22650;SDS011;11492;42.646;23.400;2023-02-28T11:47:34;40.42;;;17.77;;
22650;SDS011;11492;42.646;23.400;2023-02-28T11:53:22;42.78;;;16.48;;
22650;SDS011;11492;42.646;23.400;2023-02-28T11:55:55;38.20;;;16.10;;
22650;SDS011;11492;42.646;23.400;2023-02-28T12:09:53;35.97;;;15.68;;
22650;SDS011;11492;42.646;23.400;2023-02-28T12:17:52;36.28;;;16.42;;
22650;SDS011;11492;42.646;23.400;2023-02-28T12:20:27;33.38;;;15.40;;
22650;SDS011;11492;42.646;23.400;2023-02-28T12:29:03;40.90;;;16.33;;
22650;SDS011;11492;42.646;23.400;2023-02-28T12:31:35;45.95;;;16.55;;
22650;SDS011;11492;42.646;23.400;2023-02-28T12:35:06;30.65;;;14.63;;
22650;SDS011;11492;42.646;23.400;2023-02-28T12:37:06;40.25;;;15.60;;
22650;SDS011;11492;42.646;23.400;2023-02-28T12:39:36;34.33;;;14.98;;
22650;SDS011;11492;42.646;23.400;2023-02-28T12:42:13;38.60;;;15.57;;
22650;SDS011;11492;42.646;23.400;2023-02-28T12:44:49;38.70;;;15.45;;
22650;SDS011;11492;42.646;23.400;2023-02-28T12:47:21;34.70;;;15.45;;
22650;SDS011;11492;42.646;23.400;2023-02-28T12:49:58;37.42;;;16.35;;
22650;SDS011;11492;42.646;23.400;2023-02-28T12:52:37;33.83;;;15.52;;
22650;SDS011;11492;42.646;23.400;2023-02-28T12:55:11;33.75;;;16.25;;
22650;SDS011;11492;42.646;23.400;2023-02-28T13:00:29;41.75;;;16.42;;
22650;SDS011;11492;42.646;23.400;2023-02-28T13:03:06;40.85;;;16.77;;
22650;SDS011;11492;42.646;23.400;2023-02-28T13:05:58;28.67;;;15.02;;
22650;SDS011;11492;42.646;23.400;2023-02-28T13:11:25;35.85;;;16.15;;
22650;SDS011;11492;42.646;23.400;2023-02-28T13:13:57;32.35;;;16.08;;
22650;SDS011;11492;42.646;23.400;2023-02-28T13:16:24;37.13;;;15.88;;
22650;SDS011;11492;42.646;23.400;2023-02-28T13:18:49;45.35;;;14.85;;
22650;SDS011;11492;42.646;23.400;2023-02-28T13:21:26;34.85;;;13.30;;
22650;SDS011;11492;42.646;23.400;2023-02-28T13:26:22;36.40;;;13.20;;
22650;SDS011;11492;42.646;23.400;2023-02-28T13:31:18;34.13;;;13.68;;
22650;SDS011;11492;42.646;23.400;2023-02-28T13:38:49;40.30;;;15.23;;
22650;SDS011;11492;42.646;23.400;2023-02-28T13:51:53;35.72;;;14.32;;
22650;SDS011;11492;42.646;23.400;2023-02-28T14:05:47;31.77;;;14.43;;
22650;SDS011;11492;42.646;23.400;2023-02-28T14:08:35;48.55;;;15.95;;
22650;SDS011;11492;42.646;23.400;2023-02-28T14:11:05;39.55;;;15.23;;
22650;SDS011;11492;42.646;23.400;2023-02-28T14:13:39;40.40;;;14.55;;
22650;SDS011;11492;42.646;23.400;2023-02-28T14:16:13;36.08;;;14.57;;
22650;SDS011;11492;42.646;23.400;2023-02-28T14:18:48;43.72;;;16.00;;
22650;SDS011;11492;42.646;23.400;2023-02-28T14:21:27;49.65;;;15.88;;
22650;SDS011;11492;42.646;23.400;2023-02-28T14:26:49;47.42;;;15.60;;
22650;SDS011;11492;42.646;23.400;2023-02-28T14:29:39;44.47;;;16.75;;
22650;SDS011;11492;42.646;23.400;2023-02-28T14:37:47;44.15;;;15.63;;
22650;SDS011;11492;42.646;23.400;2023-02-28T14:40:17;43.60;;;15.43;;
22650;SDS011;11492;42.646;23.400;2023-02-28T14:42:56;40.47;;;15.65;;
22650;SDS011;11492;42.646;23.400;2023-02-28T14:45:24;36.30;;;14.32;;
22650;SDS011;11492;42.646;23.400;2023-02-28T14:47:55;32.08;;;14.23;;
22650;SDS011;11492;42.646;23.400;2023-02-28T14:50:24;42.15;;;14.05;;
22650;SDS011;11492;42.646;23.400;2023-02-28T14:53:02;30.40;;;12.82;;
22650;SDS011;11492;42.646;23.400;2023-02-28T14:55:29;36.67;;;12.93;;
22650;SDS011;11492;42.646;23.400;2023-02-28T14:58:01;35.55;;;13.05;;
22650;SDS011;11492;42.646;23.400;2023-02-28T15:00:34;36.05;;;14.05;;
22650;SDS011;11492;42.646;23.400;2023-02-28T15:03:17;30.90;;;12.38;;
22650;SDS011;11492;42.646;23.400;2023-02-28T15:05:51;44.28;;;14.30;;
22650;SDS011;11492;42.646;23.400;2023-02-28T15:08:18;27.50;;;10.40;;
22650;SDS011;11492;42.646;23.400;2023-02-28T15:10:52;38.83;;;13.50;;
22650;SDS011;11492;42.646;23.400;2023-02-28T15:13:20;25.27;;;10.48;;
22650;SDS011;11492;42.646;23.400;2023-02-28T15:15:59;35.70;;;11.43;;
22650;SDS011;11492;42.646;23.400;2023-02-28T15:21:21;28.75;;;12.85;;
22650;SDS011;11492;42.646;23.400;2023-02-28T15:28:53;30.80;;;10.30;;
22650;SDS011;11492;42.646;23.400;2023-02-28T15:31:28;29.23;;;10.70;;
22650;SDS011;11492;42.646;23.400;2023-02-28T15:36:31;21.23;;;9.93;;
22650;SDS011;11492;42.646;23.400;2023-02-28T15:38:58;20.70;;;9.10;;
22650;SDS011;11492;42.646;23.400;2023-02-28T15:41:35;22.58;;;9.32;;
22650;SDS011;11492;42.646;23.400;2023-02-28T15:44:14;21.42;;;9.23;;
22650;SDS011;11492;42.646;23.400;2023-02-28T15:46:42;18.23;;;9.30;;
22650;SDS011;11492;42.646;23.400;2023-02-28T15:49:17;24.17;;;11.13;;
22650;SDS011;11492;42.646;23.400;2023-02-28T15:51:45;23.75;;;11.25;;
22650;SDS011;11492;42.646;23.400;2023-02-28T15:54:23;22.83;;;10.68;;
22650;SDS011;11492;42.646;23.400;2023-02-28T15:56:53;22.70;;;10.68;;
22650;SDS011;11492;42.646;23.400;2023-02-28T15:59:22;16.45;;;9.25;;
22650;SDS011;11492;42.646;23.400;2023-02-28T16:07:36;23.30;;;10.13;;
22650;SDS011;11492;42.646;23.400;2023-02-28T16:12:34;23.83;;;10.73;;
22650;SDS011;11492;42.646;23.400;2023-02-28T16:15:01;22.10;;;11.63;;
22650;SDS011;11492;42.646;23.400;2023-02-28T16:17:33;18.30;;;9.02;;
22650;SDS011;11492;42.646;23.400;2023-02-28T16:20:05;20.77;;;9.48;;
22650;SDS011;11492;42.646;23.400;2023-02-28T16:22:37;21.52;;;9.25;;
22650;SDS011;11492;42.646;23.400;2023-02-28T16:25:02;22.98;;;10.13;;
22650;SDS011;11492;42.646;23.400;2023-02-28T16:27:32;27.08;;;9.55;;
22650;SDS011;11492;42.646;23.400;2023-02-28T16:30:03;20.17;;;8.80;;
22650;SDS011;11492;42.646;23.400;2023-02-28T16:32:30;18.98;;;9.90;;
22650;SDS011;11492;42.646;23.400;2023-02-28T16:34:57;19.65;;;8.93;;
22650;SDS011;11492;42.646;23.400;2023-02-28T16:37:22;17.55;;;9.02;;
22650;SDS011;11492;42.646;23.400;2023-02-28T16:39:48;26.15;;;9.85;;
22650;SDS011;11492;42.646;23.400;2023-02-28T16:42:34;17.40;;;8.82;;
22650;SDS011;11492;42.646;23.400;2023-02-28T16:44:59;21.73;;;8.77;;
22650;SDS011;11492;42.646;23.400;2023-02-28T16:47:24;17.63;;;8.20;;
22650;SDS011;11492;42.646;23.400;2023-02-28T16:49:51;28.00;;;8.35;;
22650;SDS011;11492;42.646;23.400;2023-02-28T16:52:17;20.55;;;7.60;;
22650;SDS011;11492;42.646;23.400;2023-02-28T16:54:43;25.38;;;8.07;;
22650;SDS011;11492;42.646;23.400;2023-02-28T16:57:16;18.85;;;7.35;;
22650;SDS011;11492;42.646;23.400;2023-02-28T16:59:45;19.27;;;7.20;;
22650;SDS011;11492;42.646;23.400;2023-02-28T17:02:11;18.63;;;7.28;;